| time (UTC) | temp F | wind direction | speed knots | gust knots | rain 1hr in | rain 24hr in | rain mn in | humidity % | barometer mb |
| 20260509040429 | 53 | 246 | 0.0 | 0.0 | 0.00 | 0.00 | 0.00 | 85 | 1012.8 |
| 20260509035426 | 53 | 239 | 0.0 | 0.0 | 0.00 | 0.00 | 0.00 | 84 | 1012.7 |
| 20260509033419 | 53 | 239 | 0.0 | 0.0 | 0.00 | 0.00 | 0.00 | 85 | 1012.9 |
| 20260509032421 | 54 | 239 | 0.0 | 0.0 | 0.00 | 0.00 | 0.00 | 84 | 1012.9 |
| 20260509030418 | 54 | 239 | 0.0 | 0.0 | 0.00 | 0.00 | 0.00 | 83 | 1012.8 |
| 20260509025420 | 54 | 239 | 0.0 | 0.0 | 0.00 | 0.00 | 0.00 | 83 | 1012.8 |
| 20260509024415 | 54 | 239 | 0.0 | 0.0 | 0.00 | 0.00 | 0.00 | 84 | 1012.9 |
| 20260509022412 | 54 | 239 | 0.0 | 0.0 | 0.00 | 0.00 | 0.00 | 84 | 1013.0 |
| 20260509020412 | 54 | 285 | 0.0 | 0.0 | 0.00 | 0.00 | 0.00 | 83 | 1012.8 |
| 20260509015413 | 55 | 285 | 0.0 | 0.0 | 0.00 | 0.00 | 0.00 | 80 | 1012.8 |
| 20260509014413 | 55 | 285 | 0.0 | 0.0 | 0.00 | 0.00 | 0.00 | 79 | 1012.7 |
| 20260509013412 | 55 | 285 | 0.0 | 0.0 | 0.00 | 0.00 | 0.00 | 78 | 1012.8 |
| 20260509011414 | 55 | 285 | 0.0 | 0.0 | 0.00 | 0.00 | 0.00 | 75 | 1012.4 |
| 20260509005407 | 56 | 285 | 0.0 | 0.0 | 0.00 | 0.00 | 0.00 | 74 | 1011.9 |
| 20260509004404 | 56 | 285 | 0.0 | 0.0 | 0.00 | 0.00 | 0.00 | 72 | 1011.7 |
| 20260509003404 | 57 | 285 | 0.0 | 0.0 | 0.00 | 0.00 | 0.00 | 71 | 1011.6 |
| 20260509002404 | 57 | 285 | 0.0 | 0.0 | 0.00 | 0.00 | 0.00 | 68 | 1011.7 |
| 20260509001405 | 58 | 285 | 0.0 | 0.0 | 0.00 | 0.00 | 0.00 | 71 | 1011.6 |
| 20260508235405 | 59 | 285 | 0.0 | 0.0 | 0.00 | 0.00 | 0.00 | 65 | 1011.5 |
| 20260508234405 | 59 | 285 | 0.0 | 0.0 | 0.00 | 0.00 | 0.00 | 63 | 1011.3 |
| 20260508233359 | 60 | 285 | 0.0 | 0.0 | 0.00 | 0.00 | 0.00 | 60 | 1011.3 |
| 20260508232358 | 61 | 285 | 0.0 | 0.0 | 0.00 | 0.00 | 0.00 | 60 | 1011.4 |
| 20260508231359 | 61 | 285 | 0.0 | 1.7 | 0.00 | 0.00 | 0.00 | 60 | 1011.3 |
| 20260508230359 | 62 | 232 | 0.0 | 2.6 | 0.00 | 0.00 | 0.00 | 58 | 1011.3 |
| 20260508224357 | 65 | 208 | 0.0 | 0.9 | 0.00 | 0.00 | 0.00 | 57 | 1011.2 |
| 20260508223358 | 63 | 156 | 0.0 | 1.7 | 0.00 | 0.00 | 0.00 | 60 | 1011.3 |
| 20260508222359 | 63 | 155 | 0.0 | 0.9 | 0.00 | 0.00 | 0.00 | 56 | 1011.3 |
| 20260508221359 | 64 | 155 | 0.0 | 0.9 | 0.00 | 0.00 | 0.00 | 57 | 1011.2 |
| 20260508220353 | 65 | 228 | 0.0 | 0.9 | 0.00 | 0.00 | 0.00 | 53 | 1011.2 |
| 20260508215351 | 66 | 115 | 0.0 | 0.9 | 0.00 | 0.00 | 0.00 | 53 | 1011.4 |
| 20260508213351 | 65 | 209 | 0.0 | 1.7 | 0.00 | 0.00 | 0.00 | 53 | 1011.3 |
| 20260508212353 | 66 | 200 | 0.9 | 3.5 | 0.00 | 0.00 | 0.00 | 51 | 1011.3 |
| 20260508211353 | 65 | 221 | 0.9 | 4.3 | 0.00 | 0.00 | 0.00 | 53 | 1011.4 |
| 20260508210353 | 65 | 184 | 0.9 | 3.5 | 0.00 | 0.00 | 0.00 | 52 | 1011.3 |
| 20260508205352 | 65 | 349 | 0.9 | 4.3 | 0.00 | 0.00 | 0.00 | 55 | 1011.4 |
| 20260508204352 | 64 | 272 | 0.9 | 7.0 | 0.00 | 0.00 | 0.00 | 52 | 1011.5 |
| 20260508203351 | 66 | 244 | 0.0 | 3.5 | 0.00 | 0.00 | 0.00 | 53 | 1011.5 |
| 20260508202353 | 63 | 321 | 0.9 | 6.1 | 0.00 | 0.00 | 0.00 | 57 | 1011.6 |
| 20260508201352 | 63 | 202 | 0.0 | 0.9 | 0.00 | 0.00 | 0.00 | 55 | 1011.7 |
| 20260508200352 | 63 | 233 | 0.9 | 3.5 | 0.00 | 0.00 | 0.00 | 54 | 1011.7 |
| 20260508195351 | 63 | 288 | 0.9 | 7.0 | 0.00 | 0.00 | 0.00 | 52 | 1011.6 |
| 20260508194350 | 63 | 295 | 0.9 | 6.1 | 0.00 | 0.00 | 0.00 | 51 | 1011.6 |
| 20260508192349 | 63 | 269 | 1.7 | 8.7 | 0.00 | 0.00 | 0.00 | 49 | 1011.6 |
| 20260508191349 | 62 | 245 | 1.7 | 10.4 | 0.00 | 0.00 | 0.00 | 47 | 1011.7 |
| 20260508190350 | 63 | 224 | 3.5 | 8.7 | 0.00 | 0.00 | 0.00 | 47 | 1011.5 |
| 20260508184349 | 66 | 213 | 0.9 | 7.8 | 0.00 | 0.00 | 0.00 | 47 | 1011.5 |
| 20260508183352 | 63 | 238 | 1.7 | 6.1 | 0.00 | 0.00 | 0.00 | 48 | 1011.7 |
| 20260508182350 | 63 | 271 | 2.6 | 7.8 | 0.00 | 0.00 | 0.00 | 48 | 1011.8 |
| 20260508180349 | 62 | 293 | 1.7 | 6.1 | 0.00 | 0.00 | 0.00 | 51 | 1011.9 |
| 20260508175349 | 62 | 271 | 2.6 | 7.8 | 0.00 | 0.00 | 0.00 | 52 | 1012.0 |
| 20260508174350 | 62 | 195 | 2.6 | 8.7 | 0.00 | 0.00 | 0.00 | 46 | 1012.2 |
| 20260508173347 | 64 | 259 | 3.5 | 9.6 | 0.00 | 0.00 | 0.00 | 52 | 1012.3 |
| 20260508172349 | 64 | 194 | 3.5 | 11.3 | 0.00 | 0.00 | 0.00 | 51 | 1012.2 |
| 20260508171341 | 63 | 221 | 3.5 | 13.0 | 0.00 | 0.00 | 0.00 | 51 | 1012.4 |
| 20260508170340 | 63 | 148 | 3.5 | 9.6 | 0.00 | 0.00 | 0.00 | 51 | 1012.4 |
| 20260508165339 | 63 | 250 | 3.5 | 11.3 | 0.00 | 0.00 | 0.00 | 53 | 1012.5 |
| 20260508164336 | 63 | 264 | 3.5 | 9.6 | 0.00 | 0.00 | 0.00 | 51 | 1012.6 |
| 20260508163335 | 62 | 233 | 3.5 | 11.3 | 0.00 | 0.00 | 0.00 | 50 | 1012.5 |
| 20260508162334 | 62 | 218 | 2.6 | 10.4 | 0.00 | 0.00 | 0.00 | 49 | 1012.9 |
| 20260508161335 | 61 | 285 | 1.7 | 5.2 | 0.00 | 0.00 | 0.00 | 57 | 1013.0 |
| 20260508160340 | 59 | 285 | 1.7 | 7.8 | 0.00 | 0.00 | 0.00 | 52 | 1013.1 |
| 20260508155335 | 59 | 249 | 0.9 | 5.2 | 0.00 | 0.00 | 0.00 | 54 | 1013.3 |
| 20260508154334 | 58 | 195 | 1.7 | 6.1 | 0.00 | 0.00 | 0.00 | 54 | 1013.3 |
| 20260508153335 | 58 | 184 | 2.6 | 9.6 | 0.00 | 0.00 | 0.00 | 53 | 1013.4 |
| 20260508150333 | 60 | 328 | 0.9 | 6.1 | 0.00 | 0.00 | 0.00 | 53 | 1013.3 |
| 20260508145336 | 59 | 158 | 1.7 | 8.7 | 0.00 | 0.00 | 0.00 | 55 | 1013.3 |
| 20260508144333 | 59 | 254 | 0.9 | 7.0 | 0.00 | 0.00 | 0.00 | 50 | 1013.4 |
| 20260508143330 | 59 | 248 | 0.0 | 0.9 | 0.00 | 0.00 | 0.00 | 56 | 1013.3 |
| 20260508142331 | 58 | 127 | 0.0 | 0.9 | 0.00 | 0.00 | 0.00 | 50 | 1013.4 |
| 20260508141331 | 59 | 247 | 0.9 | 4.3 | 0.00 | 0.00 | 0.00 | 51 | 1013.4 |
| 20260508135329 | 58 | 255 | 0.0 | 0.9 | 0.00 | 0.00 | 0.00 | 61 | 1013.3 |
| 20260508134329 | 57 | 237 | 0.0 | 3.5 | 0.00 | 0.00 | 0.00 | 61 | 1013.4 |
| 20260508133330 | 57 | 329 | 0.9 | 4.3 | 0.00 | 0.00 | 0.00 | 68 | 1013.5 |
| 20260508132328 | 56 | 188 | 1.7 | 5.2 | 0.00 | 0.00 | 0.00 | 67 | 1013.7 |
| 20260508131329 | 55 | 241 | 0.9 | 6.1 | 0.00 | 0.00 | 0.00 | 66 | 1013.7 |
| 20260508130328 | 55 | 249 | 0.9 | 5.2 | 0.00 | 0.00 | 0.00 | 75 | 1013.7 |
| 20260508125329 | 54 | 206 | 0.9 | 4.3 | 0.00 | 0.00 | 0.00 | 74 | 1013.6 |
| 20260508124328 | 53 | 240 | 0.9 | 4.3 | 0.00 | 0.00 | 0.00 | 73 | 1013.5 |
| 20260508123328 | 53 | 248 | 0.9 | 4.3 | 0.00 | 0.00 | 0.00 | 78 | 1013.4 |
| 20260508122328 | 52 | 276 | 0.9 | 4.3 | 0.00 | 0.00 | 0.00 | 77 | 1013.4 |
| 20260508121329 | 52 | 307 | 1.7 | 7.0 | 0.00 | 0.00 | 0.00 | 78 | 1013.5 |
| 20260508120328 | 51 | 162 | 0.0 | 2.6 | 0.00 | 0.00 | 0.00 | 82 | 1013.5 |
| 20260508115329 | 50 | 231 | 0.9 | 4.3 | 0.00 | 0.00 | 0.00 | 83 | 1013.6 |
| 20260508114330 | 49 | 250 | 0.9 | 2.6 | 0.00 | 0.00 | 0.00 | 85 | 1013.5 |
| 20260508113326 | 48 | 266 | 0.0 | 2.6 | 0.00 | 0.00 | 0.00 | 86 | 1013.4 |
| 20260508112325 | 47 | 216 | 0.0 | 0.0 | 0.00 | 0.00 | 0.00 | 88 | 1013.4 |
| 20260508111324 | 46 | 243 | 0.0 | 0.0 | 0.00 | 0.00 | 0.00 | 91 | 1013.4 |
| 20260508110324 | 44 | 240 | 0.0 | 0.0 | 0.00 | 0.00 | 0.00 | 94 | 1013.1 |
| 20260508105324 | 42 | 260 | 0.0 | 0.0 | 0.00 | 0.00 | 0.00 | 96 | 1013.1 |
| 20260508104324 | 41 | 245 | 0.0 | 0.0 | 0.00 | 0.00 | 0.00 | 96 | 1012.9 |
| 20260508103324 | 40 | 245 | 0.0 | 0.0 | 0.00 | 0.00 | 0.00 | 95 | 1012.9 |
| 20260508101326 | 40 | 231 | 0.0 | 0.0 | 0.00 | 0.00 | 0.00 | 94 | 1012.8 |
| 20260508100327 | 40 | 231 | 0.0 | 0.0 | 0.00 | 0.00 | 0.00 | 93 | 1012.7 |
| 20260508095325 | 41 | 231 | 0.0 | 0.0 | 0.00 | 0.00 | 0.00 | 93 | 1012.6 |
| 20260508094324 | 41 | 231 | 0.0 | 0.0 | 0.00 | 0.00 | 0.00 | 92 | 1012.7 |
| 20260508092321 | 42 | 231 | 0.0 | 0.0 | 0.00 | 0.00 | 0.00 | 91 | 1012.6 |
| 20260508091321 | 43 | 232 | 0.0 | 0.0 | 0.00 | 0.00 | 0.00 | 89 | 1012.4 |
| 20260508090320 | 44 | 232 | 0.0 | 0.0 | 0.00 | 0.00 | 0.00 | 88 | 1012.3 |
| 20260508084320 | 45 | 232 | 0.0 | 0.0 | 0.00 | 0.00 | 0.00 | 87 | 1012.2 |
| 20260508083321 | 45 | 76 | 0.0 | 0.0 | 0.00 | 0.00 | 0.00 | 86 | 1011.8 |
| 20260508082320 | 46 | 76 | 0.0 | 0.0 | 0.00 | 0.00 | 0.00 | 85 | 1011.8 |
| 20260508081320 | 46 | 18 | 0.0 | 0.0 | 0.00 | 0.01 | 0.00 | 85 | 1011.7 |
| 20260508075320 | 47 | 48 | 0.0 | 2.6 | 0.00 | 0.03 | 0.00 | 85 | 1011.9 |
| 20260508074312 | 47 | 4 | 0.0 | 1.7 | 0.00 | 0.04 | 0.00 | 84 | 1011.7 |
| 20260508072311 | 48 | 155 | 0.0 | 0.0 | 0.00 | 0.05 | 0.00 | 82 | 1011.5 |
| 20260508070312 | 48 | 14 | 0.0 | 0.9 | 0.00 | 0.07 | 0.00 | 82 | 1010.8 |
| 20260508065312 | 48 | 33 | 0.0 | 1.7 | 0.00 | 0.09 | 0.00 | 83 | 1010.7 |
| 20260508064311 | 48 | 20 | 0.0 | 0.0 | 0.00 | 0.11 | 0.00 | 83 | 1010.3 |
| 20260508063312 | 48 | 59 | 0.0 | 1.7 | 0.00 | 0.13 | 0.00 | 84 | 1010.1 |
| 20260508062311 | 48 | 335 | 0.0 | 0.9 | 0.00 | 0.15 | 0.00 | 85 | 1010.2 |
| 20260508061311 | 48 | 20 | 0.0 | 3.5 | 0.00 | 0.16 | 0.00 | 86 | 1010.2 |
| 20260508060312 | 48 | 117 | 0.9 | 4.3 | 0.00 | 0.19 | 0.00 | 88 | 1010.4 |
| 20260508055311 | 47 | 216 | 0.0 | 1.7 | 0.00 | 0.24 | 0.00 | 93 | 1010.5 |
| 20260508054311 | 46 | 113 | 0.0 | 2.6 | 0.00 | 0.30 | 0.00 | 97 | 1010.4 |
| 20260508053311 | 45 | 223 | 0.0 | 0.0 | 0.00 | 0.32 | 0.00 | 97 | 1010.0 |
| 20260508051313 | 44 | 238 | 0.0 | 0.0 | 0.00 | 0.42 | 0.00 | 96 | 1009.6 |
| 20260508050316 | 44 | 178 | 0.0 | 0.0 | 0.00 | 0.42 | 0.00 | 96 | 1009.3 |
| 20260508045309 | 44 | 178 | 0.0 | 0.0 | 0.00 | 0.42 | 0.00 | 96 | 1009.7 |
| 20260508044310 | 44 | 178 | 0.0 | 0.0 | 0.00 | 0.42 | 0.00 | 96 | 1009.7 |
| 20260508043309 | 44 | 178 | 0.0 | 0.0 | 0.00 | 0.42 | 0.00 | 96 | 1009.7 |
| 20260508042310 | 44 | 178 | 0.0 | 0.0 | 0.00 | 0.42 | 0.00 | 96 | 1009.6 |
| 20260508041309 | 43 | 178 | 0.0 | 0.0 | 0.00 | 0.42 | 0.00 | 96 | 1009.4 |